Accueil
METAR-TAF:

METAR-TAF

Aéroports :

Dortmund, Allemagne

Aéroport de Dortmund

latitude: 51-31N, longitude: 007-37E, altitude: 127 m

Observation

Le bulletin a été fait il y a 2 heures et 38 minutes, à 19:50 UTC
Vent 2 kt de direction variable
Température 5°C
Humidité 65%
Pression 1015 hPa
Visibilité 10 km ou plus
pas de nuages en-dessous de 1500 mètres et pas de cumulonimbus.

METAR: EDLW 271950Z VRB02KT CAVOK 05/M01 Q1015

Heure: 00:28 (22:28 UTC)

Prévision

Le bulletin a été fait il y a 5 heures et 28 minutes, à 17:00 UTC
Prévision valable du 27 à 18 UTC au 28 à 18 UTC
Vent 5 kt de ouest/nord-ouest
Visibilité 10 km ou plus
Nuages épars à une hauteur de 4500 ft
Evoluant progressivement
du 27 à 18 UTC au 27 à 21 UTC
Vent 3 kt de direction variable
Evoluant progressivement
du 28 à 06 UTC au 28 à 09 UTC
Vent 8 kt de ouest

TAF: EDLW 271700Z 2718/2818 29005KT 9999 SCT045 BECMG 2718/2721 VRB03KT BECMG 2806/2809 26008KT

Observations et prévisions météorologiques de plus de 4000 aéroports (messages METAR et TAF).

Les stations disponibles sont représentées par des disques jaunes et rouges sur la carte.

Passer la souris dessus pour voir le nom de la station.

Cliquer dessus pour voir les observations et prévisions météorologiques.

Pour changer de carte: cliquez sur les boutons verts avec une croix noire pour zoomer, sur le bouton vert avec un tiret pour effectuer un zoom arrière, ou sur les flèches vertes pour les cartes adjacentes.


METAR-TAF: